createdAt,value
2018-11-05T00:00:45.754Z,93.35
2018-11-05T00:01:45.732Z,93.35
2018-11-05T00:02:45.721Z,93.35
2018-11-05T00:03:45.710Z,93.45
2018-11-05T00:04:45.697Z,93.15
2018-11-05T00:05:45.704Z,93.35
2018-11-05T00:06:45.725Z,93.35
2018-11-05T00:07:45.666Z,93.45
2018-11-05T00:08:45.668Z,93.25
2018-11-05T00:09:45.644Z,93.15
2018-11-05T00:10:45.638Z,93.39
2018-11-05T00:11:45.619Z,93.49
2018-11-05T00:12:45.637Z,93.15
2018-11-05T00:13:45.602Z,93.66
2018-11-05T00:14:45.590Z,93.45
2018-11-05T00:15:45.576Z,94.07
2018-11-05T00:16:45.562Z,94.17
2018-11-05T00:17:45.564Z,94.37
2018-11-05T00:18:45.569Z,94.27
2018-11-05T00:19:45.540Z,94.17
2018-11-05T00:20:45.518Z,94.37
2018-11-05T00:21:45.508Z,94.27
2018-11-05T00:22:45.497Z,93.76
2018-11-05T00:23:45.486Z,93.96
2018-11-05T00:24:45.487Z,94.07
2018-11-05T00:25:45.468Z,93.76
2018-11-05T00:26:45.452Z,94.07
2018-11-05T00:27:45.440Z,93.96
2018-11-05T00:28:45.429Z,94.17
2018-11-05T00:29:45.470Z,94.37
2018-11-05T00:30:45.409Z,94.68
2018-11-05T00:31:45.397Z,93.76
2018-11-05T00:32:45.385Z,94.01
2018-11-05T00:33:45.371Z,93.96
2018-11-05T00:34:45.364Z,94.21
2018-11-05T00:35:45.370Z,94.48
2018-11-05T00:36:45.338Z,94.68
2018-11-05T00:37:45.335Z,94.78
2018-11-05T00:38:45.317Z,94.17
2018-11-05T00:39:45.307Z,94.78
2018-11-05T00:40:45.297Z,94.68
2018-11-05T00:41:45.353Z,94.37
2018-11-05T00:42:45.271Z,94.68
2018-11-05T00:43:45.269Z,94.37
2018-11-05T00:44:45.263Z,94.17
2018-11-05T00:45:45.301Z,94.68
2018-11-05T00:46:45.226Z,94.37
2018-11-05T00:47:45.249Z,94.73
2018-11-05T00:48:45.206Z,95.20
2018-11-05T00:49:45.211Z,95.29
2018-11-05T00:50:45.186Z,95.29
2018-11-05T00:51:45.195Z,94.89
2018-11-05T00:52:45.165Z,95.44
2018-11-05T00:53:45.162Z,95.40
2018-11-05T00:54:45.138Z,95.24
2018-11-05T00:55:45.136Z,95.50
2018-11-05T00:56:45.117Z,95.14
2018-11-05T00:57:45.126Z,95.61
2018-11-05T00:58:45.093Z,95.03
2018-11-05T00:59:45.083Z,95.20
2018-11-05T01:00:45.070Z,95.20
2018-11-05T01:01:45.067Z,95.29
2018-11-05T01:02:45.050Z,95.29
2018-11-05T01:03:45.050Z,95.20
2018-11-05T01:04:45.028Z,95.29
2018-11-05T01:05:45.017Z,95.40
2018-11-05T01:06:45.003Z,94.89
2018-11-05T01:07:45.001Z,95.70
2018-11-05T01:08:45.018Z,95.20
2018-11-05T01:09:44.971Z,96.01
2018-11-05T01:10:44.963Z,94.99
2018-11-05T01:11:44.949Z,95.50
2018-11-05T01:12:44.940Z,95.70
2018-11-05T01:13:44.927Z,95.09
2018-11-05T01:14:44.928Z,95.20
2018-11-05T01:15:44.917Z,94.99
2018-11-05T01:16:44.894Z,95.09
2018-11-05T01:17:44.882Z,95.50
2018-11-05T01:18:44.932Z,94.99
2018-11-05T01:19:44.866Z,95.91
2018-11-05T01:20:44.848Z,95.61
2018-11-05T01:21:44.841Z,95.20
2018-11-05T01:22:44.835Z,95.20
2018-11-05T01:23:44.819Z,95.91
2018-11-05T01:24:44.840Z,95.91
2018-11-05T01:25:44.799Z,95.81
2018-11-05T01:26:44.781Z,95.95
2018-11-05T01:27:44.769Z,95.81
2018-11-05T01:28:44.764Z,95.61
2018-11-05T01:29:44.745Z,95.91
2018-11-05T01:30:44.765Z,94.99
2018-11-05T01:31:44.726Z,95.50
2018-11-05T01:32:44.721Z,95.81
2018-11-05T01:33:44.701Z,95.91
2018-11-05T01:34:44.691Z,95.50
2018-11-05T01:35:44.680Z,95.61
2018-11-05T01:36:44.688Z,95.70
2018-11-05T01:37:44.657Z,95.50
2018-11-05T01:38:44.654Z,95.50
2018-11-05T01:39:44.635Z,95.81
2018-11-05T01:40:44.625Z,95.61
2018-11-05T01:41:44.614Z,95.50
2018-11-05T01:42:44.619Z,96.12
2018-11-05T01:43:44.626Z,95.20
2018-11-05T01:44:44.582Z,95.70
2018-11-05T01:45:44.575Z,96.12
2018-11-05T01:46:44.556Z,95.81
2018-11-05T01:47:44.551Z,95.91
2018-11-05T01:48:44.536Z,96.01
2018-11-05T01:49:44.535Z,96.12
2018-11-05T01:50:44.511Z,96.12
2018-11-05T01:51:44.722Z,96.22
2018-11-05T01:52:44.497Z,95.70
2018-11-05T01:53:44.478Z,95.61
2018-11-05T01:54:44.466Z,96.12
2018-11-05T01:55:44.455Z,96.32
2018-11-05T01:56:44.444Z,96.01
2018-11-05T01:57:44.489Z,96.12
2018-11-05T01:58:44.422Z,95.50
2018-11-05T01:59:44.413Z,95.91
2018-11-05T02:00:44.399Z,96.12
2018-11-05T02:01:44.394Z,96.12
2018-11-05T02:02:44.379Z,96.01
2018-11-05T02:03:44.403Z,95.81
2018-11-05T02:04:44.354Z,96.01
2018-11-05T02:05:44.344Z,95.61
2018-11-05T02:06:44.332Z,96.32
2018-11-05T02:07:44.323Z,96.12
2018-11-05T02:08:44.313Z,96.32
2018-11-05T02:09:44.334Z,95.91
2018-11-05T02:10:44.285Z,96.12
2018-11-05T02:11:44.275Z,96.32
2018-11-05T02:12:44.263Z,96.22
2018-11-05T02:13:44.259Z,96.32
2018-11-05T02:14:44.241Z,96.22
2018-11-05T02:15:44.265Z,96.42
2018-11-05T02:16:44.218Z,96.01
2018-11-05T02:17:44.209Z,96.01
2018-11-05T02:18:44.195Z,96.32
2018-11-05T02:19:44.191Z,96.22
2018-11-05T02:20:44.175Z,96.12
2018-11-05T02:21:44.176Z,96.32
2018-11-05T02:22:44.152Z,96.42
2018-11-05T02:23:44.141Z,96.32
2018-11-05T02:24:44.129Z,95.91
2018-11-05T02:25:44.135Z,96.32
2018-11-05T02:26:44.105Z,96.42
2018-11-05T02:27:44.130Z,95.81
2018-11-05T02:28:44.084Z,96.73
2018-11-05T02:29:44.076Z,96.53
2018-11-05T02:30:44.075Z,96.63
2018-11-05T02:31:44.054Z,96.63
2018-11-05T02:32:44.050Z,96.42
2018-11-05T02:33:44.033Z,97.04
2018-11-05T02:34:44.018Z,96.73
2018-11-05T02:35:44.007Z,96.53
2018-11-05T02:36:43.993Z,97.04
2018-11-05T02:37:44.025Z,97.04
2018-11-05T02:38:43.973Z,97.04
2018-11-05T02:39:43.964Z,96.63
2018-11-05T02:40:43.949Z,96.73
2018-11-05T02:41:43.938Z,97.04
2018-11-05T02:42:43.933Z,96.53
2018-11-05T02:43:43.955Z,96.94
2018-11-05T02:44:43.904Z,96.32
2018-11-05T02:45:43.893Z,96.53
2018-11-05T02:46:43.881Z,96.63
2018-11-05T02:47:43.876Z,97.34
2018-11-05T02:48:43.858Z,96.63
2018-11-05T02:49:43.873Z,97.04
2018-11-05T02:50:43.837Z,96.94
2018-11-05T02:51:43.823Z,96.73
2018-11-05T02:52:43.813Z,97.04
2018-11-05T02:53:43.836Z,96.63
2018-11-05T02:54:43.793Z,96.73
2018-11-05T02:55:43.787Z,96.73
2018-11-05T02:56:43.768Z,97.04
2018-11-05T02:57:43.757Z,96.73
2018-11-05T02:58:43.745Z,96.63
2018-11-05T02:59:43.747Z,96.73
2018-11-05T03:00:43.721Z,96.63
2018-11-05T03:01:43.715Z,96.63
2018-11-05T03:02:43.699Z,97.24
2018-11-05T03:03:43.690Z,96.53
2018-11-05T03:04:43.689Z,96.83
2018-11-05T03:05:43.669Z,96.63
2018-11-05T03:06:43.654Z,96.42
2018-11-05T03:07:43.650Z,96.63
2018-11-05T03:08:43.633Z,96.63
2018-11-05T03:09:43.651Z,96.63
2018-11-05T03:10:43.610Z,96.53
2018-11-05T03:11:43.599Z,96.73
2018-11-05T03:12:43.589Z,96.73
2018-11-05T03:13:43.579Z,97.04
2018-11-05T03:14:43.565Z,97.04
2018-11-05T03:15:43.570Z,96.94
2018-11-05T03:16:43.555Z,96.63
2018-11-05T03:17:43.532Z,97.04
2018-11-05T03:18:43.521Z,96.94
2018-11-05T03:19:43.513Z,97.34
2018-11-05T03:20:43.498Z,96.83
2018-11-05T03:21:43.498Z,96.42
2018-11-05T03:22:43.476Z,96.42
2018-11-05T03:23:43.464Z,97.24
2018-11-05T03:24:43.452Z,96.63
2018-11-05T03:25:43.453Z,96.79
2018-11-05T03:26:43.442Z,96.73
2018-11-05T03:27:43.417Z,97.14
2018-11-05T03:28:43.441Z,96.63
2018-11-05T03:29:43.396Z,96.63
2018-11-05T03:30:43.385Z,96.53
2018-11-05T03:31:43.382Z,96.32
2018-11-05T03:32:43.366Z,95.91
2018-11-05T03:33:43.350Z,96.22
2018-11-05T03:34:43.349Z,96.17
2018-11-05T03:35:43.358Z,96.17
2018-11-05T03:36:43.317Z,95.91
2018-11-05T03:37:43.312Z,95.97
2018-11-05T03:38:43.295Z,96.22
2018-11-05T03:39:43.296Z,95.91
2018-11-05T03:40:43.271Z,96.32
2018-11-05T03:41:43.260Z,95.91
2018-11-05T03:42:43.307Z,95.91
2018-11-05T03:43:43.238Z,95.81
2018-11-05T03:44:43.264Z,95.91
2018-11-05T03:45:43.216Z,95.91
2018-11-05T03:46:43.204Z,96.12
2018-11-05T03:47:43.205Z,95.91
2018-11-05T03:48:43.184Z,96.28
2018-11-05T03:49:43.170Z,95.50
2018-11-05T03:50:43.173Z,95.66
2018-11-05T03:51:43.148Z,96.17
2018-11-05T03:52:43.136Z,96.12
2018-11-05T03:53:43.125Z,96.07
2018-11-05T03:54:43.151Z,95.46
2018-11-05T03:55:43.204Z,95.25
2018-11-05T03:56:43.171Z,96.07
2018-11-05T03:57:43.080Z,96.07
2018-11-05T03:58:43.081Z,95.46
2018-11-05T03:59:43.059Z,95.76
2018-11-05T04:00:43.081Z,96.17
2018-11-05T04:01:43.036Z,95.97
2018-11-05T04:02:43.031Z,96.07
2018-11-05T04:03:43.012Z,95.97
2018-11-05T04:04:43.001Z,96.17
2018-11-05T04:05:42.992Z,96.07
2018-11-05T04:06:42.997Z,96.28
2018-11-05T04:07:42.969Z,95.36
2018-11-05T04:08:42.963Z,95.87
2018-11-05T04:09:42.945Z,96.07
2018-11-05T04:10:42.934Z,96.07
2018-11-05T04:11:42.934Z,96.07
2018-11-05T04:12:42.913Z,95.46
2018-11-05T04:13:42.915Z,96.17
2018-11-05T04:14:42.901Z,95.87
2018-11-05T04:15:43.079Z,95.76
2018-11-05T04:16:42.866Z,95.46
2018-11-05T04:17:42.856Z,95.76
2018-11-05T04:18:42.858Z,95.76
2018-11-05T04:19:42.836Z,95.46
2018-11-05T04:20:42.824Z,95.66
2018-11-05T04:21:42.816Z,95.46
2018-11-05T04:22:42.813Z,95.46
2018-11-05T04:23:42.791Z,95.76
2018-11-05T04:24:42.780Z,95.46
2018-11-05T04:25:42.798Z,95.46
2018-11-05T04:26:42.760Z,95.56
2018-11-05T04:27:42.897Z,95.97
2018-11-05T04:28:42.733Z,95.87
2018-11-05T04:29:42.723Z,95.66
2018-11-05T04:30:42.712Z,95.87
2018-11-05T04:31:42.731Z,95.56
2018-11-05T04:32:42.693Z,95.46
2018-11-05T04:33:42.683Z,95.97
2018-11-05T04:34:42.666Z,95.87
2018-11-05T04:35:42.654Z,95.05
2018-11-05T04:36:42.642Z,95.15
2018-11-05T04:37:42.669Z,94.95
2018-11-05T04:38:42.620Z,95.36
2018-11-05T04:39:42.618Z,95.15
2018-11-05T04:40:42.600Z,94.95
2018-11-05T04:41:42.588Z,95.46
2018-11-05T04:42:42.576Z,95.46
2018-11-05T04:43:42.584Z,95.36
2018-11-05T04:44:42.558Z,95.56
2018-11-05T04:45:42.546Z,95.15
2018-11-05T04:46:42.530Z,94.74
2018-11-05T04:47:42.521Z,95.05
2018-11-05T04:48:42.508Z,95.36
2018-11-05T04:49:42.512Z,95.46
2018-11-05T04:50:42.488Z,95.15
2018-11-05T04:51:42.482Z,95.36
2018-11-05T04:52:42.465Z,95.15
2018-11-05T04:53:42.500Z,95.15
2018-11-05T04:54:42.443Z,94.74
2018-11-05T04:55:42.429Z,94.74
2018-11-05T04:56:42.424Z,94.64
2018-11-05T04:57:42.413Z,95.05
2018-11-05T04:58:42.401Z,95.15
2018-11-05T04:59:42.421Z,94.43
2018-11-05T05:00:42.375Z,94.74
2018-11-05T05:01:42.375Z,94.84
2018-11-05T05:02:42.357Z,95.15
2018-11-05T05:03:42.347Z,95.66
2018-11-05T05:04:42.335Z,95.56
2018-11-05T05:05:42.332Z,94.95
2018-11-05T05:06:42.310Z,94.54
2018-11-05T05:07:42.299Z,95.66
2018-11-05T05:08:42.285Z,94.84
2018-11-05T05:09:42.275Z,95.15
2018-11-05T05:10:42.279Z,95.25
2018-11-05T05:11:42.256Z,94.54
2018-11-05T05:12:42.241Z,95.25
2018-11-05T05:13:42.228Z,94.95
2018-11-05T05:14:42.218Z,95.15
2018-11-05T05:15:42.221Z,94.64
2018-11-05T05:16:42.196Z,94.84
2018-11-05T05:17:42.188Z,95.05
2018-11-05T05:18:42.193Z,95.46
2018-11-05T05:19:42.162Z,95.36
2018-11-05T05:20:42.150Z,95.25
2018-11-05T05:21:42.140Z,95.36
2018-11-05T05:22:42.277Z,95.56
2018-11-05T05:23:42.153Z,95.15
2018-11-05T05:24:42.112Z,95.25
2018-11-05T05:25:42.096Z,95.25
2018-11-05T05:26:42.085Z,95.25
2018-11-05T05:27:42.074Z,95.05
2018-11-05T05:28:42.064Z,95.05
2018-11-05T05:29:42.063Z,95.15
2018-11-05T05:30:42.044Z,95.15
2018-11-05T05:31:42.028Z,95.46
2018-11-05T05:32:42.017Z,95.15
2018-11-05T05:33:42.073Z,95.05
2018-11-05T05:34:42.008Z,95.05
2018-11-05T05:35:41.984Z,95.87
2018-11-05T05:36:41.995Z,95.66
2018-11-05T05:37:41.961Z,95.66
2018-11-05T05:38:41.949Z,96.07
2018-11-05T05:39:41.936Z,95.56
2018-11-05T05:40:41.951Z,95.46
2018-11-05T05:41:41.949Z,95.46
2018-11-05T05:42:41.908Z,96.17
2018-11-05T05:43:41.892Z,95.87
2018-11-05T05:44:41.883Z,95.76
2018-11-05T05:45:41.870Z,96.17
2018-11-05T05:46:41.860Z,96.28
2018-11-05T05:47:41.859Z,96.38
2018-11-05T05:48:41.844Z,96.17
2018-11-05T05:49:41.826Z,95.97
2018-11-05T05:50:41.821Z,95.76
2018-11-05T05:51:41.805Z,96.38
2018-11-05T05:52:41.793Z,95.87
2018-11-05T05:53:41.796Z,96.69
2018-11-05T05:54:41.779Z,96.28
2018-11-05T05:55:41.762Z,96.48
2018-11-05T05:56:41.747Z,96.58
2018-11-05T05:57:41.736Z,96.58
2018-11-05T05:58:41.762Z,96.58
2018-11-05T05:59:41.743Z,96.69
2018-11-05T06:00:41.709Z,96.38
2018-11-05T06:01:41.690Z,96.79
2018-11-05T06:02:41.680Z,96.69
2018-11-05T06:03:41.676Z,96.89
2018-11-05T06:04:41.673Z,96.79
2018-11-05T06:05:41.647Z,97.30
2018-11-05T06:06:41.802Z,97.09
2018-11-05T06:07:41.624Z,97.61
2018-11-05T06:08:41.648Z,97.50
2018-11-05T06:09:41.603Z,97.50
2018-11-05T06:10:41.591Z,97.40
2018-11-05T06:11:41.580Z,97.71
2018-11-05T06:12:41.574Z,97.71
2018-11-05T06:13:41.594Z,97.30
2018-11-05T06:14:41.580Z,97.71
2018-11-05T06:15:41.543Z,97.50
2018-11-05T06:16:41.524Z,97.61
2018-11-05T06:17:41.516Z,97.20
2018-11-05T06:18:41.512Z,97.20
2018-11-05T06:19:41.490Z,97.81
2018-11-05T06:20:41.518Z,97.71
2018-11-05T06:21:41.513Z,96.99
2018-11-05T06:22:41.455Z,97.40
2018-11-05T06:23:41.446Z,97.20
2018-11-05T06:24:41.445Z,97.81
2018-11-05T06:25:41.423Z,97.40
2018-11-05T06:26:41.429Z,97.20
2018-11-05T06:27:41.405Z,97.71
2018-11-05T06:28:41.482Z,97.50
2018-11-05T06:29:41.377Z,97.71
2018-11-05T06:30:41.373Z,97.20
2018-11-05T06:31:41.391Z,97.50
2018-11-05T06:32:41.348Z,97.50
2018-11-05T06:33:41.335Z,97.25
2018-11-05T06:34:41.323Z,97.40
2018-11-05T06:35:41.313Z,97.09
2018-11-05T06:36:41.309Z,96.89
2018-11-05T06:37:41.321Z,96.69
2018-11-05T06:38:41.279Z,96.99
2018-11-05T06:39:41.266Z,96.79
2018-11-05T06:40:41.255Z,97.09
2018-11-05T06:41:41.338Z,96.89
2018-11-05T06:42:41.242Z,97.20
2018-11-05T06:43:41.235Z,97.50
2018-11-05T06:44:41.279Z,96.79
2018-11-05T06:45:41.202Z,96.74
2018-11-05T06:46:41.192Z,96.95
2018-11-05T06:47:41.178Z,96.84
2018-11-05T06:48:41.209Z,96.54
2018-11-05T06:49:41.155Z,97.30
2018-11-05T06:50:41.143Z,96.99
2018-11-05T06:51:41.131Z,96.99
2018-11-05T06:52:41.167Z,96.74
2018-11-05T06:53:41.121Z,96.54
2018-11-05T06:54:41.103Z,96.74
2018-11-05T06:55:41.099Z,96.84
2018-11-05T06:56:41.077Z,97.09
2018-11-05T06:57:41.137Z,96.58
2018-11-05T06:58:41.055Z,96.64
2018-11-05T06:59:41.042Z,96.64
2018-11-05T07:00:41.049Z,96.95
2018-11-05T07:01:41.039Z,96.95
2018-11-05T07:02:41.084Z,96.64
2018-11-05T07:03:40.998Z,96.74
2018-11-05T07:04:40.986Z,96.33
2018-11-05T07:05:40.987Z,96.54
2018-11-05T07:06:40.965Z,96.44
2018-11-05T07:07:40.964Z,96.54
2018-11-05T07:08:40.940Z,96.44
2018-11-05T07:09:40.996Z,96.54
2018-11-05T07:10:40.918Z,96.54
2018-11-05T07:11:40.906Z,96.84
2018-11-05T07:12:40.900Z,96.84
2018-11-05T07:13:40.884Z,97.15
2018-11-05T07:14:40.873Z,97.36
2018-11-05T07:15:40.873Z,97.05
2018-11-05T07:16:40.849Z,97.36
2018-11-05T07:17:40.839Z,97.56
2018-11-05T07:18:40.986Z,97.77
2018-11-05T07:19:40.815Z,97.66
2018-11-05T07:20:40.817Z,97.66
2018-11-05T07:21:40.815Z,97.46
2018-11-05T07:22:40.784Z,97.77
2018-11-05T07:23:40.772Z,97.87
2018-11-05T07:24:40.766Z,98.18
2018-11-05T07:25:40.747Z,97.97
2018-11-05T07:26:40.816Z,97.66
2018-11-05T07:27:40.805Z,97.77
2018-11-05T07:28:40.714Z,97.77
2018-11-05T07:29:40.703Z,97.87
2018-11-05T07:30:40.699Z,97.87
2018-11-05T07:31:40.679Z,98.07
2018-11-05T07:32:40.705Z,98.28
2018-11-05T07:33:40.712Z,98.79
2018-11-05T07:34:40.646Z,98.28
2018-11-05T07:35:40.634Z,98.28
2018-11-05T07:36:40.625Z,98.49
2018-11-05T07:37:40.639Z,98.58
2018-11-05T07:38:40.613Z,98.58
2018-11-05T07:39:40.622Z,98.58
2018-11-05T07:40:40.576Z,98.58
2018-11-05T07:41:40.567Z,98.69
2018-11-05T07:42:40.563Z,98.69
2018-11-05T07:43:40.542Z,98.90
2018-11-05T07:44:40.531Z,99.10
2018-11-05T07:45:40.533Z,99.20
2018-11-05T07:46:40.510Z,99.51
2018-11-05T07:47:40.501Z,98.99
2018-11-05T07:48:40.493Z,98.99
2018-11-05T07:49:40.475Z,99.20
2018-11-05T07:50:40.526Z,99.82
2018-11-05T07:51:40.451Z,99.91
2018-11-05T07:52:40.441Z,99.61
2018-11-05T07:53:40.429Z,99.61
2018-11-05T07:54:40.423Z,99.51
2018-11-05T07:55:40.419Z,99.20
2018-11-05T07:56:40.442Z,99.41
2018-11-05T07:57:40.397Z,99.41
2018-11-05T07:58:40.373Z,99.30
2018-11-05T07:59:40.361Z,99.61
2018-11-05T08:00:40.353Z,99.41
2018-11-05T08:01:40.338Z,99.20
2018-11-05T08:02:40.385Z,99.61
2018-11-05T08:03:40.316Z,99.41
2018-11-05T08:04:40.305Z,99.41
2018-11-05T08:05:40.291Z,99.41
2018-11-05T08:06:40.289Z,99.61
2018-11-05T08:07:40.272Z,99.41
2018-11-05T08:08:40.293Z,99.61
2018-11-05T08:09:40.247Z,99.30
2018-11-05T08:10:40.238Z,99.41
2018-11-05T08:11:40.226Z,99.41
2018-11-05T08:12:40.221Z,99.20
2018-11-05T08:13:40.203Z,99.51
2018-11-05T08:14:40.206Z,99.61
2018-11-05T08:15:40.179Z,99.20
2018-11-05T08:16:40.167Z,99.10
2018-11-05T08:17:40.157Z,99.30
2018-11-05T08:18:40.154Z,99.20
2018-11-05T08:19:40.169Z,98.99
2018-11-05T08:20:40.122Z,99.20
2018-11-05T08:21:40.111Z,99.10
2018-11-05T08:22:40.100Z,99.20
2018-11-05T08:23:40.091Z,99.10
2018-11-05T08:24:40.084Z,98.99
2018-11-05T08:25:40.103Z,99.20
2018-11-05T08:26:40.055Z,99.20
2018-11-05T08:27:40.043Z,99.20
2018-11-05T08:28:40.032Z,98.99
2018-11-05T08:29:40.019Z,98.79
2018-11-05T08:30:40.016Z,98.90
2018-11-05T08:31:40.036Z,98.99
2018-11-05T08:32:39.988Z,98.38
2018-11-05T08:33:39.975Z,99.20
2018-11-05T08:34:39.963Z,98.99
2018-11-05T08:35:39.951Z,98.65
2018-11-05T08:36:39.946Z,98.99
2018-11-05T08:37:39.942Z,98.90
2018-11-05T08:38:39.918Z,98.58
2018-11-05T08:39:39.907Z,98.65
2018-11-05T08:40:39.896Z,98.49
2018-11-05T08:41:39.899Z,98.65
2018-11-05T08:42:39.915Z,98.69
2018-11-05T08:43:39.861Z,98.44
2018-11-05T08:44:39.849Z,98.74
2018-11-05T08:45:39.838Z,98.33
2018-11-05T08:46:39.886Z,98.79
2018-11-05T08:47:39.816Z,98.44
2018-11-05T08:48:39.846Z,98.74
2018-11-05T08:49:39.792Z,98.03
2018-11-05T08:50:39.808Z,98.03
2018-11-05T08:51:39.965Z,98.03
2018-11-05T08:52:39.759Z,97.82
2018-11-05T08:53:39.749Z,97.62
2018-11-05T08:54:39.756Z,97.72
2018-11-05T08:55:39.725Z,97.72
2018-11-05T08:56:39.711Z,97.41
2018-11-05T08:57:39.777Z,97.72
2018-11-05T08:58:39.689Z,97.82
2018-11-05T08:59:39.691Z,97.72
2018-11-05T09:00:39.673Z,97.62
2018-11-05T09:01:39.656Z,97.82
2018-11-05T09:02:39.645Z,97.72
2018-11-05T09:03:39.633Z,97.52
2018-11-05T09:04:39.706Z,97.62
2018-11-05T09:05:39.610Z,97.37
2018-11-05T09:06:39.604Z,96.70
2018-11-05T09:07:39.587Z,96.45
2018-11-05T09:08:39.574Z,96.34
2018-11-05T09:09:39.565Z,96.55
2018-11-05T09:10:39.903Z,96.34
2018-11-05T09:11:39.917Z,96.45
2018-11-05T09:12:39.537Z,96.86
2018-11-05T09:13:39.520Z,96.25
2018-11-05T09:14:39.509Z,96.34
2018-11-05T09:15:39.531Z,96.04
2018-11-05T09:16:39.486Z,95.73
2018-11-05T09:17:39.472Z,96.04
2018-11-05T09:18:39.468Z,95.84
2018-11-05T09:19:39.452Z,95.89
2018-11-05T09:20:39.515Z,95.79
2018-11-05T09:21:39.461Z,95.69
2018-11-05T09:22:39.416Z,96.00
2018-11-05T09:23:39.406Z,95.84
2018-11-05T09:24:39.398Z,95.89
2018-11-05T09:25:39.384Z,95.79
2018-11-05T09:26:39.372Z,95.38
2018-11-05T09:27:39.471Z,95.59
2018-11-05T09:28:39.349Z,95.89
2018-11-05T09:29:39.339Z,95.38
2018-11-05T09:30:39.335Z,95.89
2018-11-05T09:31:39.315Z,96.00
2018-11-05T09:32:39.303Z,95.63
2018-11-05T09:33:39.305Z,96.34
2018-11-05T09:34:39.280Z,96.61
2018-11-05T09:35:39.270Z,96.51
2018-11-05T09:36:39.265Z,96.51
2018-11-05T09:37:39.259Z,96.61
2018-11-05T09:38:39.236Z,96.51
2018-11-05T09:39:39.222Z,96.75
2018-11-05T09:40:39.225Z,96.66
2018-11-05T09:41:39.200Z,96.25
2018-11-05T09:42:39.212Z,96.55
2018-11-05T09:43:39.176Z,96.71
2018-11-05T09:44:39.167Z,96.51
2018-11-05T09:45:39.204Z,96.81
2018-11-05T09:46:39.144Z,95.69
2018-11-05T09:47:39.137Z,95.28
2018-11-05T09:48:39.127Z,95.48
2018-11-05T09:49:39.152Z,95.48
2018-11-05T09:50:39.109Z,95.48
2018-11-05T09:51:39.097Z,94.87
2018-11-05T09:52:39.073Z,95.03
2018-11-05T09:53:39.063Z,95.38
2018-11-05T09:54:39.052Z,95.13
2018-11-05T09:55:39.096Z,94.32
2018-11-05T09:56:39.047Z,95.03
2018-11-05T09:57:39.019Z,95.07
2018-11-05T09:58:39.012Z,93.85
2018-11-05T09:59:38.995Z,93.70
2018-11-05T10:00:38.984Z,94.26
2018-11-05T10:01:38.994Z,94.11
2018-11-05T10:02:39.091Z,93.95
2018-11-05T10:03:39.192Z,93.44
2018-11-05T10:04:39.227Z,93.54
2018-11-05T10:05:39.061Z,93.91
2018-11-05T10:06:38.923Z,93.80
2018-11-05T10:07:38.903Z,94.26
2018-11-05T10:08:38.904Z,93.80
2018-11-05T10:09:38.930Z,93.91
2018-11-05T10:10:38.871Z,93.70
2018-11-05T10:11:38.858Z,93.70
2018-11-05T10:12:38.854Z,93.40
2018-11-05T10:13:38.847Z,92.99
2018-11-05T10:14:38.856Z,93.09
2018-11-05T10:15:38.811Z,93.09
2018-11-05T10:16:38.802Z,92.78
2018-11-05T10:17:38.792Z,92.37
2018-11-05T10:18:38.787Z,92.27
2018-11-05T10:19:38.767Z,92.99
2018-11-05T10:20:38.799Z,92.68
2018-11-05T10:21:38.779Z,92.68
2018-11-05T10:22:38.735Z,92.13
2018-11-05T10:23:38.720Z,92.33
2018-11-05T10:24:38.821Z,92.43
2018-11-05T10:25:38.699Z,91.61
2018-11-05T10:26:38.690Z,91.52
2018-11-05T10:27:38.697Z,91.72
2018-11-05T10:28:38.666Z,90.70
2018-11-05T10:29:38.655Z,91.41
2018-11-05T10:30:38.649Z,91.20
2018-11-05T10:31:38.632Z,91.61
2018-11-05T10:32:38.637Z,90.70
2018-11-05T10:33:38.729Z,91.41
2018-11-05T10:34:38.597Z,91.11
2018-11-05T10:35:38.588Z,90.86
2018-11-05T10:36:38.578Z,90.96
2018-11-05T10:37:38.563Z,91.37
2018-11-05T10:38:38.568Z,90.86
2018-11-05T10:39:38.543Z,90.96
2018-11-05T10:40:38.530Z,90.14
2018-11-05T10:41:38.520Z,90.00
2018-11-05T10:42:38.514Z,90.75
2018-11-05T10:43:38.532Z,90.25
2018-11-05T10:44:38.488Z,89.69
2018-11-05T10:45:38.474Z,90.04
2018-11-05T10:46:38.465Z,90.86
2018-11-05T10:47:38.452Z,90.96
2018-11-05T10:48:38.446Z,91.37
2018-11-05T10:49:38.465Z,91.06
2018-11-05T10:50:38.437Z,91.06
2018-11-05T10:51:38.413Z,91.31
2018-11-05T10:52:38.396Z,91.11
2018-11-05T10:53:38.387Z,91.37
2018-11-05T10:54:38.380Z,91.06
2018-11-05T10:55:38.374Z,91.52
2018-11-05T10:56:38.350Z,91.61
2018-11-05T10:57:38.378Z,91.41
2018-11-05T10:58:38.365Z,92.33
2018-11-05T10:59:38.315Z,91.86
2018-11-05T11:00:38.313Z,91.00
2018-11-05T11:01:38.294Z,91.72
2018-11-05T11:02:38.283Z,91.41
2018-11-05T11:03:38.340Z,91.00
2018-11-05T11:04:38.292Z,91.72
2018-11-05T11:05:38.247Z,91.41
2018-11-05T11:06:38.244Z,91.52
2018-11-05T11:07:38.226Z,91.20
2018-11-05T11:08:38.214Z,91.20
2018-11-05T11:09:38.325Z,90.96
2018-11-05T11:10:38.241Z,91.06
2018-11-05T11:11:38.179Z,90.96
2018-11-05T11:12:38.179Z,90.96
2018-11-05T11:13:38.159Z,91.16
2018-11-05T11:14:38.147Z,91.06
2018-11-05T11:15:38.136Z,91.78
2018-11-05T11:16:38.138Z,90.86
2018-11-05T11:17:38.113Z,90.96
2018-11-05T11:18:38.137Z,90.66
2018-11-05T11:19:38.091Z,91.06
2018-11-05T11:20:38.079Z,91.37
2018-11-05T11:21:38.068Z,91.37
2018-11-05T11:22:38.056Z,91.06
2018-11-05T11:23:38.045Z,91.06
2018-11-05T11:24:38.069Z,92.19
2018-11-05T11:25:38.029Z,91.06
2018-11-05T11:26:38.012Z,91.27
2018-11-05T11:27:38.068Z,91.16
2018-11-05T11:28:38.024Z,90.81
2018-11-05T11:29:37.977Z,90.86
2018-11-05T11:30:37.982Z,90.92
2018-11-05T11:31:37.962Z,91.02
2018-11-05T11:32:37.944Z,91.16
2018-11-05T11:33:37.931Z,90.92
2018-11-05T11:34:37.920Z,90.41
2018-11-05T11:35:37.925Z,90.92
2018-11-05T11:36:38.066Z,90.92
2018-11-05T11:37:37.897Z,90.81
2018-11-05T11:38:37.877Z,90.88
2018-11-05T11:39:37.871Z,89.49
2018-11-05T11:40:37.891Z,89.08
2018-11-05T11:41:37.842Z,89.79
2018-11-05T11:42:37.832Z,90.00
2018-11-05T11:43:37.872Z,90.77
2018-11-05T11:44:37.892Z,88.98
2018-11-05T11:45:37.798Z,88.98
2018-11-05T11:46:37.816Z,88.98
2018-11-05T11:47:37.773Z,89.18
2018-11-05T11:48:37.763Z,89.96
2018-11-05T11:49:37.760Z,89.79
2018-11-05T11:50:37.742Z,89.79
2018-11-05T11:51:37.728Z,89.39
2018-11-05T11:52:37.787Z,89.28
2018-11-05T11:53:37.714Z,89.18
2018-11-05T11:54:37.698Z,89.32
2018-11-05T11:55:37.688Z,89.90
2018-11-05T11:56:37.674Z,89.69
2018-11-05T11:57:37.845Z,89.69
2018-11-05T11:58:37.680Z,90.51
2018-11-05T11:59:37.640Z,89.84
2018-11-05T12:00:37.627Z,90.51
2018-11-05T12:01:37.640Z,91.02
2018-11-05T12:02:37.610Z,89.79
2018-11-05T12:03:37.594Z,90.92
2018-11-05T12:04:37.595Z,90.92
2018-11-05T12:05:37.605Z,90.75
2018-11-05T12:06:37.561Z,90.96
2018-11-05T12:07:37.549Z,90.71
2018-11-05T12:08:37.542Z,90.45
2018-11-05T12:09:37.526Z,90.45
2018-11-05T12:10:37.514Z,90.96
2018-11-05T12:11:37.534Z,90.96
2018-11-05T12:12:37.491Z,91.06
2018-11-05T12:13:37.479Z,90.71
2018-11-05T12:14:37.684Z,90.92
2018-11-05T12:15:37.464Z,90.41
2018-11-05T12:16:37.448Z,90.00
2018-11-05T12:17:37.449Z,90.10
2018-11-05T12:18:37.425Z,89.69
2018-11-05T12:19:37.426Z,89.39
2018-11-05T12:20:37.402Z,89.90
2018-11-05T12:21:37.394Z,89.86
2018-11-05T12:22:37.381Z,89.25
2018-11-05T12:23:37.365Z,88.98
2018-11-05T12:24:37.453Z,89.45
2018-11-05T12:25:37.350Z,89.34
2018-11-05T12:26:37.351Z,88.93
2018-11-05T12:27:37.327Z,88.84
2018-11-05T12:28:37.310Z,89.34
2018-11-05T12:29:37.300Z,89.25
2018-11-05T12:30:37.304Z,88.93
2018-11-05T12:31:37.277Z,88.43
2018-11-05T12:32:37.265Z,88.93
2018-11-05T12:33:37.261Z,89.04
2018-11-05T12:34:37.251Z,88.88
2018-11-05T12:35:37.275Z,88.17
2018-11-05T12:36:37.220Z,88.22
2018-11-05T12:37:37.210Z,88.57
2018-11-05T12:38:37.225Z,88.57
2018-11-05T12:39:37.193Z,88.57
2018-11-05T12:40:37.176Z,88.53
2018-11-05T12:41:37.198Z,89.25
2018-11-05T12:42:37.152Z,88.53
2018-11-05T12:43:37.141Z,88.12
2018-11-05T12:44:37.250Z,88.93
2018-11-05T12:45:37.125Z,88.63
2018-11-05T12:46:37.109Z,88.22
2018-11-05T12:47:37.112Z,87.98
2018-11-05T12:48:37.085Z,87.00
2018-11-05T12:49:37.075Z,86.45
2018-11-05T12:50:37.208Z,87.37
2018-11-05T12:51:37.056Z,87.16
2018-11-05T12:52:37.060Z,87.98